sensor_id;sensor_type;location;lat;lon;timestamp;pressure;altitude;pressure_sealevel;temperature;humidity
70458;BME280;57919;56.194;95.716;2023-02-02T00:09:31;100740.44;;;-17.42;62.76
70458;BME280;57919;56.194;95.716;2023-02-02T00:19:33;100745.09;;;-17.52;63.06
70458;BME280;57919;56.194;95.716;2023-02-02T00:29:36;100732.75;;;-17.77;62.64
70458;BME280;57919;56.194;95.716;2023-02-02T00:39:37;100774.63;;;-17.65;62.94
70458;BME280;57919;56.194;95.716;2023-02-02T00:49:39;100784.47;;;-17.76;62.07
70458;BME280;57919;56.194;95.716;2023-02-02T00:59:41;100753.63;;;-18.24;62.66
70458;BME280;57919;56.194;95.716;2023-02-02T01:09:43;100768.72;;;-18.32;62.50
70458;BME280;57919;56.194;95.716;2023-02-02T01:19:45;100790.59;;;-18.42;62.07
70458;BME280;57919;56.194;95.716;2023-02-02T01:29:47;100786.56;;;-18.53;62.48
70458;BME280;57919;56.194;95.716;2023-02-02T01:39:49;100773.06;;;-18.81;62.26
70458;BME280;57919;56.194;95.716;2023-02-02T01:49:52;100765.41;;;-18.96;63.19
70458;BME280;57919;56.194;95.716;2023-02-02T01:59:59;100806.25;;;-18.87;62.73
70458;BME280;57919;56.194;95.716;2023-02-02T02:10:01;100760.28;;;-19.27;62.20
70458;BME280;57919;56.194;95.716;2023-02-02T02:41:21;100750.81;;;-18.79;63.05
70458;BME280;57919;56.194;95.716;2023-02-02T02:51:45;100803.31;;;-18.28;62.44
70458;BME280;57919;56.194;95.716;2023-02-02T03:02:26;100798.16;;;-18.28;61.82
70458;BME280;57919;56.194;95.716;2023-02-02T03:12:31;100809.56;;;-17.91;61.95
70458;BME280;57919;56.194;95.716;2023-02-02T03:22:33;100804.63;;;-17.69;61.78
70458;BME280;57919;56.194;95.716;2023-02-02T03:32:36;100777.84;;;-17.16;61.62
70458;BME280;57919;56.194;95.716;2023-02-02T03:42:38;100792.75;;;-15.94;60.97
70458;BME280;57919;56.194;95.716;2023-02-02T03:52:40;100793.47;;;-15.57;60.00
70458;BME280;57919;56.194;95.716;2023-02-02T04:02:43;100793.16;;;-14.99;59.74
70458;BME280;57919;56.194;95.716;2023-02-02T04:12:45;100780.19;;;-15.21;59.25
70458;BME280;57919;56.194;95.716;2023-02-02T04:22:47;100769.06;;;-15.40;59.12
70458;BME280;57919;56.194;95.716;2023-02-02T04:32:50;100778.25;;;-15.05;58.28
70458;BME280;57919;56.194;95.716;2023-02-02T04:42:52;100739.38;;;-15.25;58.77
70458;BME280;57919;56.194;95.716;2023-02-02T04:52:54;100773.50;;;-14.70;57.84
70458;BME280;57919;56.194;95.716;2023-02-02T05:02:56;100771.63;;;-14.74;57.69
70458;BME280;57919;56.194;95.716;2023-02-02T05:12:58;100769.06;;;-14.50;58.04
70458;BME280;57919;56.194;95.716;2023-02-02T05:22:59;100756.22;;;-13.96;57.36
70458;BME280;57919;56.194;95.716;2023-02-02T05:33:02;100736.56;;;-13.88;56.76
70458;BME280;57919;56.194;95.716;2023-02-02T05:43:04;100749.44;;;-13.66;56.81
70458;BME280;57919;56.194;95.716;2023-02-02T05:53:05;100733.25;;;-13.30;57.30
70458;BME280;57919;56.194;95.716;2023-02-02T06:03:08;100728.19;;;-12.96;57.70
70458;BME280;57919;56.194;95.716;2023-02-02T06:13:10;100708.47;;;-12.88;56.12
70458;BME280;57919;56.194;95.716;2023-02-02T06:23:12;100695.53;;;-13.15;56.42
70458;BME280;57919;56.194;95.716;2023-02-02T06:33:14;100669.53;;;-13.13;57.29
70458;BME280;57919;56.194;95.716;2023-02-02T06:43:16;100676.66;;;-12.78;56.93
70458;BME280;57919;56.194;95.716;2023-02-02T06:53:18;100698.22;;;-12.52;56.97
70458;BME280;57919;56.194;95.716;2023-02-02T07:03:23;100658.88;;;-12.92;56.80
70458;BME280;57919;56.194;95.716;2023-02-02T07:13:25;100689.34;;;-12.58;56.97
70458;BME280;57919;56.194;95.716;2023-02-02T07:23:27;100689.13;;;-12.66;56.77
70458;BME280;57919;56.194;95.716;2023-02-02T07:33:30;100686.41;;;-12.39;57.62
70458;BME280;57919;56.194;95.716;2023-02-02T07:43:31;100660.59;;;-12.30;57.68
70458;BME280;57919;56.194;95.716;2023-02-02T07:53:34;100678.78;;;-11.98;57.42
70458;BME280;57919;56.194;95.716;2023-02-02T08:03:37;100659.50;;;-12.05;57.79
70458;BME280;57919;56.194;95.716;2023-02-02T08:13:40;100671.56;;;-12.09;57.81
70458;BME280;57919;56.194;95.716;2023-02-02T08:23:42;100656.53;;;-12.19;57.80
70458;BME280;57919;56.194;95.716;2023-02-02T08:33:46;100664.28;;;-12.22;58.04
70458;BME280;57919;56.194;95.716;2023-02-02T08:43:49;100655.78;;;-12.48;57.84
70458;BME280;57919;56.194;95.716;2023-02-02T08:53:51;100666.47;;;-12.37;58.35
70458;BME280;57919;56.194;95.716;2023-02-02T09:03:55;100667.56;;;-12.29;58.08
70458;BME280;57919;56.194;95.716;2023-02-02T09:13:58;100687.19;;;-12.10;58.16
70458;BME280;57919;56.194;95.716;2023-02-02T09:24:06;100685.97;;;-12.23;57.75
70458;BME280;57919;56.194;95.716;2023-02-02T09:34:12;100686.53;;;-12.34;58.06
70458;BME280;57919;56.194;95.716;2023-02-02T09:54:27;100671.44;;;-12.78;58.49
70458;BME280;57919;56.194;95.716;2023-02-02T10:04:35;100652.47;;;-13.03;58.20
70458;BME280;57919;56.194;95.716;2023-02-02T10:14:48;100639.81;;;-13.21;58.17
70458;BME280;57919;56.194;95.716;2023-02-02T10:24:53;100645.69;;;-13.57;58.67
70458;BME280;57919;56.194;95.716;2023-02-02T10:45:17;100656.88;;;-14.39;58.72
70458;BME280;57919;56.194;95.716;2023-02-02T10:55:39;100674.78;;;-14.72;59.16
70458;BME280;57919;56.194;95.716;2023-02-02T11:05:44;100682.38;;;-14.27;59.38
70458;BME280;57919;56.194;95.716;2023-02-02T11:26:16;100686.13;;;-15.16;60.18
70458;BME280;57919;56.194;95.716;2023-02-02T11:36:20;100650.66;;;-15.39;60.88
70458;BME280;57919;56.194;95.716;2023-02-02T11:46:29;100656.38;;;-15.25;60.75
70458;BME280;57919;56.194;95.716;2023-02-02T11:56:36;100650.31;;;-15.48;60.66
70458;BME280;57919;56.194;95.716;2023-02-02T12:06:39;100674.88;;;-15.39;61.61
70458;BME280;57919;56.194;95.716;2023-02-02T13:18:29;100612.63;;;-17.10;63.73
70458;BME280;57919;56.194;95.716;2023-02-02T13:28:57;100639.09;;;-17.15;65.71
70458;BME280;57919;56.194;95.716;2023-02-02T13:39:12;100600.97;;;-17.58;64.79
70458;BME280;57919;56.194;95.716;2023-02-02T13:49:31;100603.44;;;-17.42;65.15
70458;BME280;57919;56.194;95.716;2023-02-02T14:00:03;100603.44;;;-17.42;64.85
70458;BME280;57919;56.194;95.716;2023-02-02T14:10:27;100618.28;;;-17.38;65.57
70458;BME280;57919;56.194;95.716;2023-02-02T14:20:44;100592.00;;;-17.47;65.94
70458;BME280;57919;56.194;95.716;2023-02-02T14:31:25;100608.88;;;-17.36;67.57
70458;BME280;57919;56.194;95.716;2023-02-02T14:52:19;100598.94;;;-17.65;68.74
70458;BME280;57919;56.194;95.716;2023-02-02T15:02:32;100595.69;;;-17.61;68.25
70458;BME280;57919;56.194;95.716;2023-02-02T15:12:45;100583.38;;;-17.47;69.42
70458;BME280;57919;56.194;95.716;2023-02-02T15:32:56;100549.56;;;-17.52;67.38
70458;BME280;57919;56.194;95.716;2023-02-02T15:43:06;100530.53;;;-17.54;67.05
70458;BME280;57919;56.194;95.716;2023-02-02T15:53:15;100543.19;;;-17.79;66.29
70458;BME280;57919;56.194;95.716;2023-02-02T16:03:24;100547.28;;;-18.39;65.60
70458;BME280;57919;56.194;95.716;2023-02-02T16:13:27;100527.19;;;-18.64;66.03
70458;BME280;57919;56.194;95.716;2023-02-02T16:23:33;100515.13;;;-18.28;66.33
70458;BME280;57919;56.194;95.716;2023-02-02T16:33:38;100507.41;;;-18.09;66.00
70458;BME280;57919;56.194;95.716;2023-02-02T16:43:42;100517.59;;;-18.12;67.94
70458;BME280;57919;56.194;95.716;2023-02-02T16:53:47;100500.75;;;-18.23;67.90
70458;BME280;57919;56.194;95.716;2023-02-02T17:03:53;100453.56;;;-18.38;67.93
70458;BME280;57919;56.194;95.716;2023-02-02T17:13:56;100491.59;;;-17.97;67.73
70458;BME280;57919;56.194;95.716;2023-02-02T17:23:57;100430.50;;;-18.16;67.20
70458;BME280;57919;56.194;95.716;2023-02-02T17:33:59;100422.41;;;-18.04;66.67
70458;BME280;57919;56.194;95.716;2023-02-02T17:44:01;100464.75;;;-17.81;66.73
70458;BME280;57919;56.194;95.716;2023-02-02T17:54:13;100433.34;;;-18.29;66.01
70458;BME280;57919;56.194;95.716;2023-02-02T18:04:15;100436.31;;;-18.39;66.74
70458;BME280;57919;56.194;95.716;2023-02-02T18:14:17;100410.97;;;-18.48;66.92
70458;BME280;57919;56.194;95.716;2023-02-02T18:24:19;100445.44;;;-18.09;65.97
70458;BME280;57919;56.194;95.716;2023-02-02T18:34:21;100444.91;;;-18.21;65.83
70458;BME280;57919;56.194;95.716;2023-02-02T18:44:23;100442.81;;;-18.67;65.00
70458;BME280;57919;56.194;95.716;2023-02-02T18:54:25;100423.91;;;-19.03;64.62
70458;BME280;57919;56.194;95.716;2023-02-02T19:04:27;100445.94;;;-18.91;65.47
70458;BME280;57919;56.194;95.716;2023-02-02T19:14:31;100438.69;;;-19.16;64.53
70458;BME280;57919;56.194;95.716;2023-02-02T19:24:38;100438.56;;;-19.19;66.23
70458;BME280;57919;56.194;95.716;2023-02-02T19:34:41;100428.09;;;-18.87;66.60
70458;BME280;57919;56.194;95.716;2023-02-02T19:44:43;100387.00;;;-19.02;66.81
70458;BME280;57919;56.194;95.716;2023-02-02T19:54:45;100439.28;;;-18.69;67.28
70458;BME280;57919;56.194;95.716;2023-02-02T20:04:59;100425.91;;;-18.60;67.37
70458;BME280;57919;56.194;95.716;2023-02-02T20:15:21;100405.22;;;-18.61;67.65
70458;BME280;57919;56.194;95.716;2023-02-02T20:25:24;100367.81;;;-18.71;67.38
70458;BME280;57919;56.194;95.716;2023-02-02T20:35:38;100405.53;;;-18.54;68.12
70458;BME280;57919;56.194;95.716;2023-02-02T20:45:43;100395.91;;;-18.58;67.17
70458;BME280;57919;56.194;95.716;2023-02-02T20:55:45;100382.00;;;-18.61;67.77
70458;BME280;57919;56.194;95.716;2023-02-02T21:05:47;100382.38;;;-18.52;68.18
70458;BME280;57919;56.194;95.716;2023-02-02T21:15:48;100343.97;;;-18.46;67.50
70458;BME280;57919;56.194;95.716;2023-02-02T21:25:50;100376.00;;;-18.03;68.00
70458;BME280;57919;56.194;95.716;2023-02-02T21:35:56;100370.09;;;-18.00;67.75
70458;BME280;57919;56.194;95.716;2023-02-02T21:45:58;100371.31;;;-18.11;67.39
70458;BME280;57919;56.194;95.716;2023-02-02T21:56:00;100350.94;;;-18.05;67.22
70458;BME280;57919;56.194;95.716;2023-02-02T22:16:19;100322.19;;;-17.93;67.79
70458;BME280;57919;56.194;95.716;2023-02-02T22:26:30;100340.56;;;-17.65;67.14
70458;BME280;57919;56.194;95.716;2023-02-02T22:36:34;100314.69;;;-17.87;66.32
70458;BME280;57919;56.194;95.716;2023-02-02T22:46:36;100319.34;;;-17.79;67.35
70458;BME280;57919;56.194;95.716;2023-02-02T22:56:38;100319.97;;;-17.63;66.72
70458;BME280;57919;56.194;95.716;2023-02-02T23:06:40;100301.81;;;-17.65;66.48
70458;BME280;57919;56.194;95.716;2023-02-02T23:16:42;100309.47;;;-17.68;66.99
70458;BME280;57919;56.194;95.716;2023-02-02T23:26:44;100263.34;;;-18.01;66.13
70458;BME280;57919;56.194;95.716;2023-02-02T23:36:46;100303.66;;;-17.83;66.55
70458;BME280;57919;56.194;95.716;2023-02-02T23:46:49;100301.25;;;-18.00;66.72
70458;BME280;57919;56.194;95.716;2023-02-02T23:56:51;100271.81;;;-18.24;67.26
